| time (UTC) | temp F | wind direction | speed MPH | gust MPH | rain 1hr in | rain 24hr in | rain mn in | humidity % | barometer mb |
| 20260502151959 | 41 | 163 | 2.0 | 3.0 | 0.00 | 0.00 | 0.00 | 53 | 1025.8 |
| 20260502151455 | 40 | 281 | 2.0 | 2.0 | 0.00 | 0.00 | 0.00 | 54 | 1025.8 |
| 20260502150953 | 40 | 278 | 0.0 | 2.0 | 0.00 | 0.00 | 0.00 | 55 | 1025.8 |
| 20260502150450 | 40 | 311 | 2.0 | 3.0 | 0.00 | 0.00 | 0.00 | 55 | 1025.9 |
| 20260502130329 | 33 | 272 | 1.0 | 3.0 | 0.00 | 0.00 | 0.00 | 65 | 1025.5 |
| 20260502123815 | 33 | 229 | 2.0 | 3.0 | 0.00 | 0.00 | 0.00 | 64 | 1025.4 |
| 20260502123312 | 33 | 246 | 2.0 | 3.0 | 0.00 | 0.00 | 0.00 | 64 | 1025.3 |
| 20260502122809 | 33 | 0 | 0.0 | 2.0 | 0.00 | 0.00 | 0.00 | 64 | 1025.4 |
| 20260502122306 | 34 | 343 | 0.0 | 4.0 | 0.00 | 0.00 | 0.00 | 60 | 1025.4 |
| 20260502121803 | 33 | 346 | 2.0 | 4.0 | 0.00 | 0.00 | 0.00 | 63 | 1025.4 |
| 20260502121300 | 34 | 330 | 2.0 | 3.0 | 0.00 | 0.00 | 0.00 | 62 | 1025.3 |
| 20260502120757 | 34 | 341 | 2.0 | 3.0 | 0.00 | 0.00 | 0.00 | 64 | 1025.3 |
| 20260502120254 | 34 | 332 | 2.0 | 2.0 | 0.00 | 0.00 | 0.00 | 63 | 1025.4 |
| 20260502115752 | 33 | 348 | 0.0 | 2.0 | 0.00 | 0.00 | 0.00 | 62 | 1025.2 |
| 20260502115248 | 33 | 15 | 0.0 | 2.0 | 0.00 | 0.00 | 0.00 | 63 | 1025.3 |
| 20260502114744 | 33 | 332 | 1.0 | 2.0 | 0.00 | 0.00 | 0.00 | 66 | 1025.2 |
| 20260502114241 | 33 | 299 | 0.0 | 2.0 | 0.00 | 0.00 | 0.00 | 63 | 1025.2 |
| 20260502113738 | 33 | 220 | 2.0 | 4.0 | 0.00 | 0.00 | 0.00 | 63 | 1025.3 |
| 20260502113236 | 33 | 278 | 2.0 | 4.0 | 0.00 | 0.00 | 0.00 | 66 | 1025.2 |
| 20260502112734 | 33 | 274 | 0.0 | 3.0 | 0.00 | 0.00 | 0.00 | 63 | 1025.2 |
| 20260502112231 | 33 | 271 | 2.0 | 3.0 | 0.00 | 0.00 | 0.00 | 64 | 1025.2 |
| 20260502111728 | 34 | 304 | 2.0 | 4.0 | 0.00 | 0.00 | 0.00 | 65 | 1025.3 |
| 20260502111226 | 34 | 266 | 2.0 | 2.0 | 0.00 | 0.00 | 0.00 | 64 | 1025.4 |
| 20260502110723 | 34 | 309 | 1.0 | 2.0 | 0.00 | 0.00 | 0.00 | 66 | 1025.2 |
| 20260502110221 | 35 | 261 | 0.0 | 3.0 | 0.00 | 0.00 | 0.00 | 64 | 1025.2 |
| 20260502105719 | 35 | 309 | 2.0 | 2.0 | 0.00 | 0.00 | 0.00 | 62 | 1025.3 |
| 20260502105215 | 35 | 281 | 1.0 | 2.0 | 0.00 | 0.00 | 0.00 | 63 | 1025.3 |
| 20260502104713 | 36 | 293 | 1.0 | 2.0 | 0.00 | 0.00 | 0.00 | 58 | 1025.5 |
| 20260502104210 | 36 | 295 | 0.0 | 2.0 | 0.00 | 0.00 | 0.00 | 58 | 1025.4 |
| 20260502103707 | 35 | 336 | 0.0 | 1.0 | 0.00 | 0.00 | 0.00 | 61 | 1025.4 |
| 20260502103205 | 35 | 302 | 1.0 | 2.0 | 0.00 | 0.00 | 0.00 | 60 | 1025.3 |
| 20260502102702 | 35 | 284 | 2.0 | 2.0 | 0.00 | 0.00 | 0.00 | 58 | 1025.4 |
| 20260502102158 | 35 | 295 | 0.0 | 2.0 | 0.00 | 0.00 | 0.00 | 63 | 1025.3 |
| 20260502101656 | 35 | 299 | 0.0 | 1.0 | 0.00 | 0.00 | 0.00 | 60 | 1025.2 |
| 20260502101154 | 35 | 287 | 1.0 | 2.0 | 0.00 | 0.00 | 0.00 | 64 | 1025.3 |
| 20260502100653 | 35 | 302 | 1.0 | 2.0 | 0.00 | 0.00 | 0.00 | 61 | 1025.2 |
| 20260502100150 | 35 | 280 | 2.0 | 2.0 | 0.00 | 0.00 | 0.00 | 63 | 1025.2 |
| 20260502091125 | 38 | 293 | 0.0 | 2.0 | 0.00 | 0.00 | 0.00 | 58 | 1024.9 |
| 20260502090621 | 39 | 297 | 1.0 | 1.0 | 0.00 | 0.00 | 0.00 | 56 | 1025.0 |
| 20260502090119 | 39 | 235 | 1.0 | 2.0 | 0.00 | 0.00 | 0.00 | 53 | 1025.0 |
| 20260502071521 | 41 | 302 | 0.0 | 1.0 | 0.00 | 0.00 | 0.00 | 50 | 1024.9 |
| 20260502071020 | 41 | 277 | 0.0 | 1.0 | 0.00 | 0.00 | 0.00 | 51 | 1025.0 |
| 20260502070517 | 41 | 258 | 1.0 | 2.0 | 0.00 | 0.00 | 0.00 | 51 | 1024.9 |
| 20260502070015 | 42 | 286 | 2.0 | 2.0 | 0.00 | 0.00 | 0.00 | 51 | 1024.9 |
| 20260502065513 | 42 | 290 | 0.0 | 1.0 | 0.00 | 0.00 | 0.00 | 47 | 1025.0 |
| 20260502065011 | 42 | 311 | 0.0 | 0.0 | 0.00 | 0.00 | 0.00 | 48 | 1025.0 |
| 20260502064509 | 42 | 297 | 0.0 | 1.0 | 0.00 | 0.00 | 0.00 | 49 | 1024.8 |
| 20260502064006 | 42 | 310 | 0.0 | 2.0 | 0.00 | 0.00 | 0.00 | 49 | 1024.6 |
| 20260502063504 | 42 | 314 | 0.0 | 1.0 | 0.00 | 0.00 | 0.00 | 47 | 1024.7 |
| 20260502063001 | 42 | 296 | 0.0 | 0.0 | 0.00 | 0.00 | 0.00 | 49 | 1024.8 |
| 20260502062457 | 42 | 280 | 0.0 | 1.0 | 0.00 | 0.00 | 0.00 | 48 | 1024.7 |
| 20260502061956 | 42 | 304 | 0.0 | 1.0 | 0.00 | 0.00 | 0.00 | 49 | 1024.7 |
| 20260502061454 | 43 | 283 | 0.0 | 1.0 | 0.00 | 0.00 | 0.00 | 47 | 1024.7 |
| 20260502060950 | 43 | 283 | 0.0 | 0.0 | 0.00 | 0.00 | 0.00 | 48 | 1024.7 |
| 20260502060445 | 43 | 293 | 0.0 | 1.0 | 0.00 | 0.00 | 0.00 | 49 | 1024.7 |
| 20260502055942 | 43 | 300 | 1.0 | 2.0 | 0.00 | 0.00 | 0.00 | 47 | 1024.7 |
| 20260502055441 | 43 | 269 | 0.0 | 1.0 | 0.00 | 0.00 | 0.00 | 47 | 1024.6 |
| 20260502054940 | 43 | 286 | 0.0 | 0.0 | 0.00 | 0.00 | 0.00 | 46 | 1024.6 |
| 20260502054438 | 43 | 279 | 0.0 | 1.0 | 0.00 | 0.00 | 0.00 | 47 | 1024.7 |
| 20260502053935 | 44 | 288 | 0.0 | 1.0 | 0.00 | 0.00 | 0.00 | 47 | 1024.6 |
| 20260502053432 | 44 | 287 | 0.0 | 0.0 | 0.00 | 0.00 | 0.00 | 47 | 1024.7 |
| 20260502052930 | 44 | 269 | 0.0 | 1.0 | 0.00 | 0.00 | 0.00 | 47 | 1024.6 |
| 20260502052428 | 43 | 293 | 0.0 | 0.0 | 0.00 | 0.00 | 0.00 | 45 | 1024.6 |
| 20260502051926 | 44 | 306 | 0.0 | 2.0 | 0.00 | 0.00 | 0.00 | 48 | 1024.4 |
| 20260502051423 | 44 | 244 | 1.0 | 2.0 | 0.00 | 0.00 | 0.00 | 45 | 1024.4 |
| 20260502050920 | 44 | 310 | 0.0 | 1.0 | 0.00 | 0.00 | 0.00 | 44 | 1024.4 |
| 20260502050416 | 44 | 306 | 0.0 | 0.0 | 0.00 | 0.00 | 0.00 | 44 | 1024.6 |
| 20260502045914 | 44 | 302 | 0.0 | 2.0 | 0.00 | 0.00 | 0.00 | 44 | 1024.4 |
| 20260502045411 | 44 | 321 | 0.0 | 1.0 | 0.00 | 0.00 | 0.00 | 43 | 1024.3 |
| 20260502044908 | 44 | 306 | 0.0 | 2.0 | 0.00 | 0.00 | 0.00 | 48 | 1024.4 |
| 20260502044403 | 44 | 283 | 0.0 | 2.0 | 0.00 | 0.00 | 0.00 | 44 | 1024.4 |
| 20260502043900 | 44 | 269 | 0.0 | 2.0 | 0.00 | 0.00 | 0.00 | 46 | 1024.3 |
| 20260502043358 | 45 | 281 | 1.0 | 2.0 | 0.00 | 0.00 | 0.00 | 44 | 1024.1 |
| 20260502042857 | 45 | 278 | 1.0 | 1.0 | 0.00 | 0.00 | 0.00 | 45 | 1024.4 |
| 20260502042355 | 45 | 303 | 1.0 | 1.0 | 0.00 | 0.00 | 0.00 | 45 | 1024.3 |
| 20260502041852 | 45 | 277 | 0.0 | 2.0 | 0.00 | 0.00 | 0.00 | 44 | 1024.3 |
| 20260502041349 | 45 | 253 | 1.0 | 2.0 | 0.00 | 0.00 | 0.00 | 43 | 1024.3 |
| 20260502040846 | 46 | 251 | 2.0 | 3.0 | 0.00 | 0.00 | 0.00 | 44 | 1024.3 |
| 20260502040343 | 47 | 273 | 1.0 | 1.0 | 0.00 | 0.00 | 0.00 | 41 | 1023.9 |
| 20260502035839 | 47 | 269 | 0.0 | 2.0 | 0.00 | 0.00 | 0.00 | 42 | 1023.9 |
| 20260502035336 | 48 | 248 | 0.0 | 2.0 | 0.00 | 0.00 | 0.00 | 39 | 1024.1 |
| 20260502034833 | 48 | 238 | 1.0 | 2.0 | 0.00 | 0.00 | 0.00 | 38 | 1023.6 |
| 20260502034332 | 48 | 268 | 1.0 | 1.0 | 0.00 | 0.00 | 0.00 | 38 | 1023.8 |
| 20260502033830 | 48 | 275 | 1.0 | 2.0 | 0.00 | 0.00 | 0.00 | 40 | 1023.7 |
| 20260502033327 | 49 | 256 | 1.0 | 2.0 | 0.00 | 0.00 | 0.00 | 38 | 1023.6 |
| 20260502032824 | 49 | 235 | 0.0 | 1.0 | 0.00 | 0.00 | 0.00 | 37 | 1023.6 |
| 20260502032320 | 49 | 295 | 0.0 | 1.0 | 0.00 | 0.00 | 0.00 | 37 | 1023.3 |
| 20260502031818 | 49 | 299 | 0.0 | 1.0 | 0.00 | 0.00 | 0.00 | 38 | 1023.5 |
| 20260502031316 | 50 | 283 | 0.0 | 1.0 | 0.00 | 0.00 | 0.00 | 39 | 1023.3 |
| 20260502030814 | 50 | 280 | 1.0 | 2.0 | 0.00 | 0.00 | 0.00 | 37 | 1023.5 |
| 20260502030312 | 51 | 259 | 1.0 | 2.0 | 0.00 | 0.00 | 0.00 | 35 | 1023.2 |
| 20260502025809 | 51 | 260 | 1.0 | 2.0 | 0.00 | 0.00 | 0.00 | 34 | 1023.2 |
| 20260502025307 | 51 | 262 | 1.0 | 1.0 | 0.00 | 0.00 | 0.00 | 35 | 1023.1 |
| 20260502024804 | 51 | 269 | 0.0 | 1.0 | 0.00 | 0.00 | 0.00 | 34 | 1023.0 |
| 20260502024302 | 51 | 269 | 0.0 | 2.0 | 0.00 | 0.00 | 0.00 | 37 | 1022.9 |
| 20260502023800 | 52 | 263 | 2.0 | 2.0 | 0.00 | 0.00 | 0.00 | 34 | 1022.9 |
| 20260502023257 | 52 | 254 | 0.0 | 1.0 | 0.00 | 0.00 | 0.00 | 35 | 1022.7 |
| 20260502022755 | 51 | 293 | 0.0 | 1.0 | 0.00 | 0.00 | 0.00 | 37 | 1023.1 |
| 20260502022250 | 52 | 306 | 0.0 | 2.0 | 0.00 | 0.00 | 0.00 | 37 | 1023.0 |
| 20260502021748 | 53 | 309 | 0.0 | 2.0 | 0.00 | 0.00 | 0.00 | 33 | 1022.6 |
| 20260502021245 | 53 | 294 | 1.0 | 1.0 | 0.00 | 0.00 | 0.00 | 32 | 1022.9 |
| 20260502020742 | 54 | 288 | 1.0 | 1.0 | 0.00 | 0.00 | 0.00 | 32 | 1022.9 |
| 20260502020240 | 54 | 296 | 0.0 | 2.0 | 0.00 | 0.00 | 0.00 | 32 | 1022.7 |
| 20260502015737 | 55 | 272 | 2.0 | 2.0 | 0.00 | 0.00 | 0.00 | 28 | 1023.0 |
| 20260502015233 | 55 | 229 | 0.0 | 2.0 | 0.00 | 0.00 | 0.00 | 28 | 1022.7 |
| 20260502014731 | 56 | 304 | 0.0 | 2.0 | 0.00 | 0.00 | 0.00 | 30 | 1022.6 |
| 20260502014228 | 57 | 247 | 1.0 | 3.0 | 0.00 | 0.00 | 0.00 | 27 | 1022.7 |
| 20260502013724 | 58 | 283 | 1.0 | 2.0 | 0.00 | 0.00 | 0.00 | 30 | 1022.7 |
| 20260502013219 | 58 | 304 | 2.0 | 4.0 | 0.00 | 0.00 | 0.00 | 30 | 1022.6 |
| 20260502012717 | 59 | 305 | 0.0 | 4.0 | 0.00 | 0.00 | 0.00 | 27 | 1022.6 |
| 20260502012215 | 59 | 256 | 3.0 | 4.0 | 0.00 | 0.00 | 0.00 | 24 | 1022.6 |
| 20260502011711 | 60 | 296 | 2.0 | 2.0 | 0.00 | 0.00 | 0.00 | 23 | 1022.5 |
| 20260502011207 | 60 | 271 | 2.0 | 2.0 | 0.00 | 0.00 | 0.00 | 24 | 1022.6 |
| 20260502010705 | 60 | 267 | 2.0 | 3.0 | 0.00 | 0.00 | 0.00 | 26 | 1022.7 |
| 20260502010201 | 62 | 223 | 1.0 | 3.0 | 0.00 | 0.00 | 0.00 | 22 | 1022.7 |
| 20260502005658 | 61 | 322 | 2.0 | 3.0 | 0.00 | 0.00 | 0.00 | 26 | 1022.9 |
| 20260502005156 | 61 | 250 | 3.0 | 4.0 | 0.00 | 0.00 | 0.00 | 24 | 1022.9 |
| 20260502004652 | 60 | 258 | 2.0 | 3.0 | 0.00 | 0.00 | 0.00 | 24 | 1022.7 |
| 20260502004149 | 60 | 245 | 3.0 | 4.0 | 0.00 | 0.00 | 0.00 | 22 | 1022.9 |
| 20260502003646 | 60 | 277 | 2.0 | 4.0 | 0.00 | 0.00 | 0.00 | 23 | 1022.9 |
| 20260502003144 | 60 | 236 | 2.0 | 4.0 | 0.00 | 0.00 | 0.00 | 23 | 1022.7 |
| 20260502002639 | 61 | 249 | 3.0 | 4.0 | 0.00 | 0.00 | 0.00 | 25 | 1022.9 |
| 20260502002137 | 60 | 242 | 1.0 | 3.0 | 0.00 | 0.00 | 0.00 | 21 | 1022.7 |
| 20260502001635 | 61 | 256 | 4.0 | 6.0 | 0.00 | 0.00 | 0.00 | 22 | 1022.7 |
| 20260502001132 | 62 | 275 | 2.0 | 4.0 | 0.00 | 0.00 | 0.00 | 23 | 1022.9 |
| 20260502000630 | 62 | 236 | 1.0 | 3.0 | 0.00 | 0.00 | 0.00 | 21 | 1023.0 |
| 20260502000127 | 62 | 245 | 4.0 | 6.0 | 0.00 | 0.00 | 0.00 | 21 | 1022.9 |
| 20260501235623 | 62 | 256 | 3.0 | 6.0 | 0.00 | 0.00 | 0.00 | 24 | 1022.9 |
| 20260501235119 | 64 | 285 | 1.0 | 4.0 | 0.00 | 0.00 | 0.00 | 22 | 1023.0 |
| 20260501234614 | 65 | 290 | 3.0 | 3.0 | 0.00 | 0.00 | 0.00 | 21 | 1022.9 |
| 20260501234112 | 65 | 308 | 1.0 | 4.0 | 0.00 | 0.00 | 0.00 | 22 | 1022.7 |
| 20260501233610 | 65 | 311 | 3.0 | 4.0 | 0.00 | 0.00 | 0.00 | 22 | 1022.9 |
| 20260501233108 | 63 | 272 | 2.0 | 4.0 | 0.00 | 0.00 | 0.00 | 23 | 1023.0 |
| 20260501232603 | 62 | 247 | 1.0 | 5.0 | 0.00 | 0.00 | 0.00 | 22 | 1023.0 |
| 20260501232101 | 62 | 291 | 3.0 | 5.0 | 0.00 | 0.00 | 0.00 | 23 | 1022.9 |
| 20260501231558 | 62 | 237 | 4.0 | 5.0 | 0.00 | 0.00 | 0.00 | 26 | 1022.7 |
| 20260501231056 | 61 | 256 | 3.0 | 4.0 | 0.00 | 0.00 | 0.00 | 25 | 1023.0 |
| 20260501230555 | 61 | 245 | 4.0 | 6.0 | 0.00 | 0.00 | 0.00 | 24 | 1023.1 |
| 20260501230052 | 60 | 221 | 2.0 | 5.0 | 0.00 | 0.00 | 0.00 | 26 | 1023.1 |
| 20260501225549 | 60 | 242 | 3.0 | 9.0 | 0.00 | 0.00 | 0.00 | 25 | 1023.1 |
| 20260501225046 | 60 | 254 | 3.0 | 4.0 | 0.00 | 0.00 | 0.00 | 25 | 1022.9 |
| 20260501224543 | 61 | 235 | 6.0 | 6.0 | 0.00 | 0.00 | 0.00 | 28 | 1023.0 |
| 20260501224040 | 60 | 252 | 5.0 | 6.0 | 0.00 | 0.00 | 0.00 | 27 | 1023.0 |
| 20260501223537 | 60 | 298 | 3.0 | 4.0 | 0.00 | 0.00 | 0.00 | 28 | 1023.3 |
| 20260501223033 | 60 | 260 | 4.0 | 5.0 | 0.00 | 0.00 | 0.00 | 27 | 1023.1 |
| 20260501222529 | 59 | 281 | 3.0 | 5.0 | 0.00 | 0.00 | 0.00 | 29 | 1023.2 |
| 20260501222026 | 59 | 253 | 3.0 | 7.0 | 0.00 | 0.00 | 0.00 | 29 | 1023.2 |
| 20260501221523 | 60 | 286 | 4.0 | 4.0 | 0.00 | 0.00 | 0.00 | 29 | 1023.3 |
| 20260501221021 | 60 | 254 | 3.0 | 6.0 | 0.00 | 0.00 | 0.00 | 27 | 1023.3 |
| 20260501220518 | 59 | 273 | 2.0 | 5.0 | 0.00 | 0.00 | 0.00 | 28 | 1023.5 |
| 20260501220015 | 59 | 236 | 4.0 | 5.0 | 0.00 | 0.00 | 0.00 | 29 | 1023.5 |
| 20260501215511 | 60 | 251 | 4.0 | 6.0 | 0.00 | 0.00 | 0.00 | 28 | 1023.3 |
| 20260501215006 | 59 | 250 | 4.0 | 9.0 | 0.00 | 0.00 | 0.00 | 28 | 1023.3 |
| 20260501214502 | 61 | 340 | 3.0 | 4.0 | 0.00 | 0.00 | 0.00 | 28 | 1023.6 |
| 20260501213958 | 60 | 266 | 4.0 | 6.0 | 0.00 | 0.00 | 0.00 | 31 | 1023.5 |
| 20260501213455 | 61 | 252 | 2.0 | 4.0 | 0.00 | 0.00 | 0.00 | 28 | 1023.6 |
| 20260501212950 | 60 | 255 | 3.0 | 8.0 | 0.00 | 0.00 | 0.00 | 29 | 1023.8 |
| 20260501212447 | 61 | 247 | 4.0 | 8.0 | 0.00 | 0.00 | 0.00 | 28 | 1023.8 |
| 20260501211944 | 62 | 280 | 4.0 | 4.0 | 0.00 | 0.00 | 0.00 | 27 | 1023.7 |
| 20260501211441 | 60 | 252 | 2.0 | 5.0 | 0.00 | 0.00 | 0.00 | 28 | 1023.8 |
| 20260501210939 | 60 | 216 | 0.0 | 4.0 | 0.00 | 0.00 | 0.00 | 29 | 1023.9 |
| 20260501210435 | 61 | 237 | 5.0 | 6.0 | 0.00 | 0.00 | 0.00 | 29 | 1024.1 |
| 20260501205932 | 60 | 275 | 5.0 | 5.0 | 0.00 | 0.00 | 0.00 | 29 | 1023.9 |
| 20260501205429 | 58 | 250 | 5.0 | 6.0 | 0.00 | 0.00 | 0.00 | 29 | 1024.1 |
| 20260501204926 | 59 | 258 | 6.0 | 8.0 | 0.00 | 0.00 | 0.00 | 32 | 1023.9 |
| 20260501204421 | 58 | 244 | 5.0 | 6.0 | 0.00 | 0.00 | 0.00 | 31 | 1024.2 |
| 20260501203918 | 57 | 250 | 4.0 | 5.0 | 0.00 | 0.00 | 0.00 | 33 | 1024.1 |
| 20260501203415 | 58 | 262 | 3.0 | 8.0 | 0.00 | 0.00 | 0.00 | 33 | 1024.2 |
| 20260501202913 | 57 | 262 | 4.0 | 4.0 | 0.00 | 0.00 | 0.00 | 34 | 1024.2 |
| 20260501202409 | 57 | 266 | 3.0 | 5.0 | 0.00 | 0.00 | 0.00 | 33 | 1024.3 |
| 20260501201906 | 56 | 284 | 2.0 | 4.0 | 0.00 | 0.00 | 0.00 | 34 | 1024.2 |
| 20260501201403 | 56 | 272 | 3.0 | 8.0 | 0.00 | 0.00 | 0.00 | 35 | 1024.2 |
| 20260501200859 | 56 | 284 | 2.0 | 4.0 | 0.00 | 0.00 | 0.00 | 34 | 1024.2 |
| 20260501200356 | 56 | 261 | 3.0 | 5.0 | 0.00 | 0.00 | 0.00 | 35 | 1024.2 |
| 20260501195854 | 55 | 271 | 5.0 | 7.0 | 0.00 | 0.00 | 0.00 | 37 | 1024.4 |
| 20260501195349 | 56 | 277 | 1.0 | 3.0 | 0.00 | 0.00 | 0.00 | 36 | 1024.6 |
| 20260501194846 | 55 | 330 | 2.0 | 4.0 | 0.00 | 0.00 | 0.00 | 39 | 1024.6 |
| 20260501194342 | 55 | 271 | 2.0 | 7.0 | 0.00 | 0.00 | 0.00 | 39 | 1024.6 |
| 20260501193838 | 54 | 184 | 0.0 | 2.0 | 0.00 | 0.00 | 0.00 | 37 | 1024.6 |
| 20260501193337 | 55 | 282 | 3.0 | 4.0 | 0.00 | 0.00 | 0.00 | 39 | 1024.6 |
| 20260501192834 | 54 | 243 | 5.0 | 5.0 | 0.00 | 0.00 | 0.00 | 40 | 1024.3 |
| 20260501192331 | 53 | 127 | 0.0 | 5.0 | 0.00 | 0.00 | 0.00 | 38 | 1024.6 |
| 20260501191828 | 53 | 263 | 4.0 | 6.0 | 0.00 | 0.00 | 0.00 | 40 | 1024.6 |
| 20260501191326 | 53 | 261 | 4.0 | 5.0 | 0.00 | 0.00 | 0.00 | 40 | 1024.8 |
| 20260501190822 | 53 | 252 | 5.0 | 6.0 | 0.00 | 0.00 | 0.00 | 39 | 1024.8 |
| 20260501190318 | 53 | 279 | 3.0 | 6.0 | 0.00 | 0.00 | 0.00 | 39 | 1024.9 |
| 20260501185813 | 53 | 305 | 3.0 | 4.0 | 0.00 | 0.00 | 0.00 | 40 | 1025.2 |
| 20260501185310 | 52 | 263 | 4.0 | 5.0 | 0.00 | 0.00 | 0.00 | 43 | 1024.9 |
| 20260501184806 | 51 | 318 | 2.0 | 7.0 | 0.00 | 0.00 | 0.00 | 42 | 1024.9 |
| 20260501184302 | 51 | 237 | 5.0 | 6.0 | 0.00 | 0.00 | 0.00 | 41 | 1024.9 |
| 20260501183758 | 50 | 246 | 3.0 | 8.0 | 0.00 | 0.00 | 0.00 | 43 | 1025.0 |
| 20260501183255 | 51 | 247 | 4.0 | 7.0 | 0.00 | 0.00 | 0.00 | 41 | 1025.2 |
| 20260501182751 | 51 | 296 | 2.0 | 5.0 | 0.00 | 0.00 | 0.00 | 43 | 1025.0 |
| 20260501182248 | 51 | 296 | 3.0 | 5.0 | 0.00 | 0.00 | 0.00 | 41 | 1024.9 |
| 20260501181745 | 50 | 254 | 5.0 | 7.0 | 0.00 | 0.00 | 0.00 | 42 | 1025.3 |
| 20260501181242 | 49 | 325 | 2.0 | 5.0 | 0.00 | 0.00 | 0.00 | 42 | 1025.0 |
| 20260501180740 | 49 | 247 | 3.0 | 5.0 | 0.00 | 0.00 | 0.00 | 44 | 1025.4 |
| 20260501180235 | 50 | 237 | 3.0 | 5.0 | 0.00 | 0.00 | 0.00 | 42 | 1025.3 |
| 20260501175732 | 49 | 249 | 6.0 | 6.0 | 0.00 | 0.00 | 0.00 | 45 | 1025.5 |
| 20260501175230 | 49 | 317 | 2.0 | 5.0 | 0.00 | 0.00 | 0.00 | 44 | 1025.3 |
| 20260501174726 | 50 | 232 | 5.0 | 6.0 | 0.00 | 0.00 | 0.00 | 44 | 1025.5 |
| 20260501174223 | 48 | 258 | 0.0 | 5.0 | 0.00 | 0.00 | 0.00 | 45 | 1025.5 |
| 20260501173721 | 48 | 246 | 2.0 | 6.0 | 0.00 | 0.00 | 0.00 | 46 | 1025.6 |
| 20260501173218 | 48 | 245 | 6.0 | 6.0 | 0.00 | 0.00 | 0.00 | 44 | 1025.6 |
| 20260501172714 | 48 | 274 | 2.0 | 6.0 | 0.00 | 0.00 | 0.00 | 48 | 1025.5 |
| 20260501172209 | 48 | 259 | 5.0 | 9.0 | 0.00 | 0.00 | 0.00 | 46 | 1025.6 |
| 20260501171705 | 47 | 276 | 1.0 | 4.0 | 0.00 | 0.00 | 0.00 | 48 | 1025.8 |
| 20260501171202 | 47 | 269 | 3.0 | 5.0 | 0.00 | 0.00 | 0.00 | 49 | 1025.9 |
| 20260501170659 | 46 | 250 | 2.0 | 4.0 | 0.00 | 0.00 | 0.00 | 49 | 1025.8 |
| 20260501170156 | 46 | 299 | 1.0 | 4.0 | 0.00 | 0.00 | 0.00 | 53 | 1025.8 |
| 20260501165654 | 46 | 280 | 3.0 | 3.0 | 0.00 | 0.00 | 0.00 | 51 | 1025.9 |
| 20260501165151 | 45 | 271 | 2.0 | 6.0 | 0.00 | 0.00 | 0.00 | 55 | 1026.0 |
| 20260501164649 | 45 | 239 | 5.0 | 6.0 | 0.00 | 0.00 | 0.00 | 54 | 1025.8 |
| 20260501164145 | 44 | 258 | 3.0 | 5.0 | 0.00 | 0.00 | 0.00 | 55 | 1025.9 |
| 20260501163642 | 45 | 280 | 2.0 | 5.0 | 0.00 | 0.00 | 0.00 | 57 | 1026.0 |
| 20260501163139 | 44 | 325 | 0.0 | 3.0 | 0.00 | 0.00 | 0.00 | 56 | 1025.8 |
| 20260501162634 | 44 | 266 | 3.0 | 4.0 | 0.00 | 0.00 | 0.00 | 57 | 1025.8 |
| 20260501162131 | 43 | 262 | 2.0 | 6.0 | 0.00 | 0.00 | 0.00 | 57 | 1025.9 |
| 20260501161629 | 42 | 247 | 3.0 | 5.0 | 0.00 | 0.00 | 0.00 | 58 | 1025.8 |
| 20260501161126 | 42 | 273 | 3.0 | 4.0 | 0.00 | 0.00 | 0.00 | 60 | 1025.8 |
| 20260501160622 | 41 | 267 | 3.0 | 4.0 | 0.00 | 0.00 | 0.00 | 63 | 1025.9 |
| 20260501160120 | 41 | 299 | 2.0 | 4.0 | 0.00 | 0.00 | 0.00 | 64 | 1025.8 |
| 20260501155616 | 40 | 280 | 3.0 | 4.0 | 0.00 | 0.00 | 0.00 | 67 | 1025.9 |
| 20260501155113 | 39 | 253 | 2.0 | 3.0 | 0.00 | 0.00 | 0.00 | 68 | 1025.9 |
| 20260501154611 | 39 | 271 | 1.0 | 3.0 | 0.00 | 0.00 | 0.00 | 69 | 1025.9 |
| 20260501154107 | 38 | 261 | 2.0 | 3.0 | 0.00 | 0.00 | 0.00 | 69 | 1025.9 |
| 20260501153605 | 38 | 273 | 2.0 | 3.0 | 0.00 | 0.00 | 0.00 | 69 | 1025.9 |
| 20260501153102 | 37 | 258 | 2.0 | 2.0 | 0.00 | 0.00 | 0.00 | 70 | 1025.9 |
| 20260501152558 | 36 | 329 | 2.0 | 4.0 | 0.00 | 0.00 | 0.00 | 73 | 1025.9 |